Corinth, VT (05039)

3:57 AM EDT on August 05, 2015 (GMT -0400)
The Barn in Mill Village | | Change Station
CLOSE
Current Station
Personal Weather Station
Location: Vershire, VT
Elevation: 1017 ft
Nearby Weather Stations

Elev 1017 ft 43.96 °N, 72.30 °W | Updated 8 minutes ago

Overcast
Overcast
55.2 °F
Feels Like 55.2 °F
N
1.7
Wind Variable Wind from WNW

Today
High -- | Low -- °F
--% Chance of Precip.
Yesterday
High -- | Low -- °F
Precip. -- in
5:41 AM 8:08 PM
Waning Gibbous, 69% visible
Pressure 29.91 in
Visibility 0.5 miles
Clouds Mostly Cloudy 100 ft
Overcast 10000 ft
Dew Point 55 °F
Humidity 99%
Rainfall 0.00 in
Snow Depth Not available.
UV 0 out of 12
Pollen 4.90 out of 12
Air Quality Not available.
Flu Activity Not available.
METAR KMPV 050751Z AUTO 00000KT 1/2SM FG BKN001 OVC100 14/14 A2991 RMK AO2 SLP126 T01440139

More Conditions Fewer Conditions

Pressure 29.91 in
Visibility 0.5 miles
Clouds Mostly Cloudy 100 ft
Overcast 10000 ft
Dew Point 55 °F
Humidity 99%
Rainfall 0.00 in
Snow Depth Not available.
UV 0 out of 12
Pollen 4.90 out of 12
Air Quality Not available.
Flu Activity Not available.
METAR KMPV 050751Z AUTO 00000KT 1/2SM FG BKN001 OVC100 14/14 A2991 RMK AO2 SLP126 T01440139

More Conditions Fewer Conditions

10-Day Weather Forecast

×

Almanac

Astronomy

Aug. 05, 2015 Rise Set
Actual Time
Civil Twilight
Nautical Twilight
Astronomical Twilight
Moon
Length of Visible Light
Length of Day
Tomorrow will be .
, % of the Moon is Illuminated

Today's Extremes

State Highs State Lows

Community

WunderPhotos

Upload Photos

1,844,105 photos uploaded!

WunderBlogs® & News

Nearby

Air Quality

  Air Quality AQ Index Pollutant
Not available.

Snow Depth

Station Depth Elevation

Earthquake Activity

City Distance Mag. Time & Date
Minimum magnitude displayed is 2.5.

Coastal Water Temperatures

Place Temperature

Stations

Nearby Weather Stations

Station Location Temp. Windchill Dew Point Humidity Wind Precip. Elev Updated Type